Terminal Aerodrome Forecast
Issued by NWS

Current Version | Previous Version | Text Only | Print | Product List | Glossary On
Versions: 1 2 3 4 5 6 7 8 9 10 11 12 13 14 15 16 17 18 19
000
FTUS43 KGRB 300717 AAA
TAFAUW
TAF AMD
KAUW 300717Z 3007/3106 00000KT 1/2SM FG OVC002
     FM301500 21004KT P6SM BKN015
     FM301600 22007KT P6SM FEW020
     FM301800 21008KT P6SM SKC=

USA.gov is the U.S. government's official web portal to all federal, state and local government web resources and services.